createdAt,value
2018-03-26T00:01:24.771Z,13.38
2018-03-26T00:03:53.096Z,13.98
2018-03-26T00:06:23.244Z,13.13
2018-03-26T00:08:51.573Z,12.37
2018-03-26T00:11:19.903Z,13.60
2018-03-26T00:13:49.593Z,13.18
2018-03-26T00:16:18.699Z,11.93
2018-03-26T00:18:47.054Z,14.10
2018-03-26T00:21:16.050Z,11.65
2018-03-26T00:23:44.374Z,13.23
2018-03-26T00:26:12.714Z,12.63
2018-03-26T00:28:43.167Z,13.35
2018-03-26T00:31:11.504Z,14.70
2018-03-26T00:33:39.845Z,14.73
2018-03-26T00:36:09.245Z,13.18
2018-03-26T00:38:37.576Z,13.88
2018-03-26T00:41:07.483Z,14.10
2018-03-26T00:43:37.170Z,15.13
2018-03-26T00:46:09.430Z,16.05
2018-03-26T00:48:38.430Z,14.40
2018-03-26T00:51:06.785Z,15.85
2018-03-26T00:53:44.502Z,14.52
2018-03-26T00:56:13.598Z,13.55
2018-03-26T00:58:41.947Z,14.07
2018-03-26T01:01:11.394Z,15.20
2018-03-26T01:03:39.772Z,15.38
2018-03-26T01:06:08.140Z,16.02
2018-03-26T01:08:36.977Z,14.87
2018-03-26T01:11:06.319Z,16.30
2018-03-26T01:13:34.671Z,15.70
2018-03-26T01:16:03.225Z,17.42
2018-03-26T01:18:32.536Z,16.27
2018-03-26T01:21:00.902Z,14.63
2018-03-26T01:23:30.143Z,16.25
2018-03-26T01:25:58.502Z,15.77
2018-03-26T01:28:26.853Z,14.35
2018-03-26T01:30:56.824Z,16.58
2018-03-26T01:33:25.176Z,14.57
2018-03-26T01:35:53.551Z,16.20
2018-03-26T01:38:23.383Z,14.77
2018-03-26T01:40:52.483Z,16.15
2018-03-26T01:43:22.405Z,16.60
2018-03-26T01:45:52.021Z,16.95
2018-03-26T01:48:20.372Z,17.55
2018-03-26T01:50:48.703Z,17.27
2018-03-26T01:53:17.885Z,19.23
2018-03-26T01:55:46.281Z,18.58
2018-03-26T01:58:15.303Z,19.48
2018-03-26T02:00:45.320Z,18.85
2018-03-26T02:03:13.670Z,18.50
2018-03-26T02:05:42.781Z,19.20
2018-03-26T02:08:11.794Z,16.70
2018-03-26T02:10:40.171Z,17.35
2018-03-26T02:13:10.768Z,18.92
2018-03-26T02:15:40.501Z,19.27
2018-03-26T02:18:08.868Z,18.35
2018-03-26T02:20:37.983Z,18.00
2018-03-26T02:23:07.178Z,17.17
2018-03-26T02:25:36.285Z,21.37
2018-03-26T02:28:04.630Z,18.45
2018-03-26T02:30:34.964Z,18.33
2018-03-26T02:33:03.296Z,21.58
2018-03-26T02:35:31.648Z,20.30
2018-03-26T02:38:01.472Z,19.05
2018-03-26T02:40:30.305Z,18.10
2018-03-26T02:42:58.642Z,18.02
2018-03-26T02:45:30.625Z,19.83
2018-03-26T02:47:58.983Z,20.00
2018-03-26T02:50:27.293Z,20.10
2018-03-26T02:52:56.585Z,19.23
2018-03-26T02:55:24.935Z,19.08
2018-03-26T02:57:53.306Z,17.52
2018-03-26T03:00:21.736Z,19.98
2018-03-26T03:02:50.073Z,18.95
2018-03-26T03:05:18.418Z,19.30
2018-03-26T03:07:48.067Z,20.45
2018-03-26T03:10:16.406Z,18.27
2018-03-26T03:12:44.724Z,19.10
2018-03-26T03:15:15.788Z,19.33
2018-03-26T03:17:44.897Z,19.27
2018-03-26T03:20:13.214Z,20.92
2018-03-26T03:22:42.609Z,19.55
2018-03-26T03:25:10.944Z,18.60
2018-03-26T03:27:39.276Z,19.98
2018-03-26T03:30:08.608Z,20.15
2018-03-26T03:32:36.949Z,17.85
2018-03-26T03:35:06.034Z,18.25
2018-03-26T03:37:35.872Z,19.05
2018-03-26T03:40:04.980Z,18.10
2018-03-26T03:42:33.331Z,17.33
2018-03-26T03:45:03.294Z,19.62
2018-03-26T03:47:33.123Z,18.77
2018-03-26T03:50:01.459Z,19.45
2018-03-26T03:52:30.904Z,19.52
2018-03-26T03:54:59.229Z,18.05
2018-03-26T03:57:27.601Z,18.60
2018-03-26T03:59:57.228Z,17.83
2018-03-26T04:02:25.572Z,19.30
2018-03-26T04:04:53.982Z,19.37
2018-03-26T04:07:25.076Z,19.15
2018-03-26T04:09:53.679Z,18.17
2018-03-26T04:12:22.320Z,18.40
2018-03-26T04:14:52.444Z,18.35
2018-03-26T04:17:20.924Z,19.90
2018-03-26T04:19:50.294Z,20.40
2018-03-26T04:22:18.783Z,20.95
2018-03-26T04:24:47.980Z,19.05
2018-03-26T04:27:16.315Z,20.10
2018-03-26T04:29:44.665Z,21.20
2018-03-26T04:32:13.997Z,18.85
2018-03-26T04:34:43.088Z,20.30
2018-03-26T04:37:12.213Z,19.90
2018-03-26T04:39:41.676Z,19.85
2018-03-26T04:42:10.046Z,22.20
2018-03-26T04:44:38.391Z,24.05
2018-03-26T04:47:08.840Z,22.70
2018-03-26T04:49:38.383Z,22.75
2018-03-26T04:52:06.718Z,22.62
2018-03-26T04:54:35.899Z,24.05
2018-03-26T04:57:05.051Z,23.90
2018-03-26T04:59:33.442Z,22.60
2018-03-26T05:02:03.631Z,21.62
2018-03-26T05:04:32.013Z,20.85
2018-03-26T05:07:01.224Z,21.98
2018-03-26T05:09:30.761Z,22.90
2018-03-26T05:11:59.319Z,21.12
2018-03-26T05:14:27.774Z,24.15
2018-03-26T05:16:57.029Z,25.12
2018-03-26T05:19:25.405Z,22.23
2018-03-26T05:21:54.560Z,22.40
2018-03-26T05:24:24.821Z,23.20
2018-03-26T05:26:53.865Z,22.98
2018-03-26T05:29:22.220Z,23.83
2018-03-26T05:31:51.597Z,24.12
2018-03-26T05:34:19.953Z,24.63
2018-03-26T05:36:53.062Z,20.83
2018-03-26T05:39:21.430Z,22.40
2018-03-26T05:41:50.558Z,21.45
2018-03-26T05:44:20.001Z,22.70
2018-03-26T05:46:48.368Z,20.55
2018-03-26T05:49:16.743Z,21.40
2018-03-26T05:51:48.288Z,21.00
2018-03-26T05:54:16.661Z,21.73
2018-03-26T05:56:44.991Z,23.87
2018-03-26T05:59:14.645Z,24.10
2018-03-26T06:01:43.770Z,24.67
2018-03-26T06:04:12.097Z,25.37
2018-03-26T06:06:41.352Z,23.73
2018-03-26T06:09:09.690Z,22.42
2018-03-26T06:11:38.031Z,24.55
2018-03-26T06:14:07.730Z,22.67
2018-03-26T06:16:48.020Z,25.12
2018-03-26T06:19:17.611Z,25.42
2018-03-26T06:21:45.958Z,23.17
2018-03-26T06:24:14.319Z,26.70
2018-03-26T06:26:43.865Z,27.13
2018-03-26T06:29:12.198Z,27.48
2018-03-26T06:31:41.430Z,27.15
2018-03-26T06:34:11.549Z,27.27
2018-03-26T06:39:50.466Z,29.05
2018-03-26T06:42:18.755Z,27.33
2018-03-26T06:44:47.089Z,28.92
2018-03-26T06:47:16.223Z,28.12
2018-03-26T06:49:45.331Z,28.92
2018-03-26T06:52:14.732Z,27.58
2018-03-26T06:54:44.797Z,29.10
2018-03-26T06:57:13.069Z,29.07
2018-03-26T06:59:41.381Z,27.90
2018-03-26T07:02:10.696Z,27.02
2018-03-26T07:04:38.995Z,29.23
2018-03-26T07:07:08.082Z,27.67
2018-03-26T07:09:37.695Z,27.67
2018-03-26T07:12:06.033Z,26.87
2018-03-26T07:14:34.370Z,28.03
2018-03-26T07:17:04.264Z,26.80
2018-03-26T07:19:32.572Z,27.70
2018-03-26T07:22:01.815Z,27.40
2018-03-26T07:24:31.157Z,27.37
2018-03-26T07:26:59.468Z,26.57
2018-03-26T07:29:28.561Z,25.98
2018-03-26T07:31:58.695Z,28.20
2018-03-26T07:34:26.991Z,27.57
2018-03-26T07:36:55.273Z,28.53
2018-03-26T07:39:24.831Z,24.80
2018-03-26T07:41:53.137Z,25.57
2018-03-26T07:44:22.227Z,24.87
2018-03-26T07:46:51.342Z,24.43
2018-03-26T07:49:19.648Z,24.53
2018-03-26T07:51:47.949Z,24.77
2018-03-26T07:54:18.740Z,26.23
2018-03-26T07:56:47.795Z,24.77
2018-03-26T07:59:16.069Z,23.33
2018-03-26T08:01:44.800Z,23.87
2018-03-26T08:04:13.118Z,23.97
2018-03-26T08:06:41.424Z,26.57
2018-03-26T08:09:10.962Z,25.23
2018-03-26T08:11:39.296Z,23.80
2018-03-26T08:14:07.586Z,24.57
2018-03-26T08:16:36.471Z,24.87
2018-03-26T08:19:04.744Z,24.50
2018-03-26T08:21:33.047Z,24.43
2018-03-26T08:24:02.160Z,22.57
2018-03-26T08:26:30.447Z,24.43
2018-03-26T08:28:58.745Z,23.47
2018-03-26T08:31:28.350Z,22.67
2018-03-26T08:33:56.663Z,23.53
2018-03-26T08:36:25.738Z,23.30
2018-03-26T08:38:55.022Z,23.30
2018-03-26T08:41:23.369Z,23.53
2018-03-26T08:43:51.685Z,26.07
2018-03-26T08:46:20.957Z,23.47
2018-03-26T08:48:49.255Z,24.20
2018-03-26T08:51:17.697Z,24.20
2018-03-26T08:53:46.948Z,22.80
2018-03-26T08:56:17.003Z,23.30
2018-03-26T08:58:45.303Z,21.23
2018-03-26T09:01:14.912Z,23.50
2018-03-26T09:03:43.220Z,22.40
2018-03-26T09:06:11.695Z,22.80
2018-03-26T09:08:40.838Z,23.80
2018-03-26T09:11:09.165Z,22.33
2018-03-26T09:13:37.494Z,23.33
2018-03-26T09:16:07.244Z,22.73
2018-03-26T09:18:35.539Z,22.30
2018-03-26T09:21:04.613Z,24.37
2018-03-26T09:23:34.243Z,22.97
2018-03-26T09:26:02.560Z,26.10
2018-03-26T09:28:30.891Z,24.43
2018-03-26T09:30:59.209Z,22.80
2018-03-26T09:33:28.708Z,23.87
2018-03-26T09:35:57.022Z,23.80
2018-03-26T09:38:25.344Z,22.30
2018-03-26T09:40:54.784Z,23.17
2018-03-26T09:43:23.878Z,23.63
2018-03-26T09:45:52.238Z,23.40
2018-03-26T09:48:21.590Z,22.80
2018-03-26T09:50:50.437Z,22.50
2018-03-26T09:53:19.559Z,22.53
2018-03-26T09:55:48.640Z,22.60
2018-03-26T09:58:18.786Z,23.57
2018-03-26T10:00:48.672Z,22.87
2018-03-26T10:03:16.984Z,23.37
2018-03-26T10:05:47.099Z,22.30
2018-03-26T10:08:15.436Z,24.50
2018-03-26T10:10:43.735Z,24.00
2018-03-26T10:13:13.156Z,23.17
2018-03-26T10:15:41.461Z,24.63
2018-03-26T10:18:10.541Z,25.43
2018-03-26T10:20:39.320Z,24.73
2018-03-26T10:23:07.672Z,23.40
2018-03-26T10:25:35.985Z,23.03
2018-03-26T10:28:05.102Z,24.67
2018-03-26T10:30:35.353Z,24.43
2018-03-26T10:33:03.699Z,23.73
2018-03-26T10:35:32.005Z,22.87
2018-03-26T10:38:02.129Z,21.90
2018-03-26T10:40:31.474Z,23.23
2018-03-26T10:42:59.791Z,21.37
2018-03-26T10:45:29.159Z,21.30
2018-03-26T10:47:57.455Z,20.03
2018-03-26T10:50:25.756Z,22.40
2018-03-26T10:52:55.168Z,21.70
2018-03-26T10:55:23.453Z,22.40
2018-03-26T10:57:51.762Z,22.70
2018-03-26T11:00:22.948Z,20.77
2018-03-26T11:02:51.981Z,23.50
2018-03-26T11:05:21.056Z,21.87
2018-03-26T11:07:50.615Z,21.90
2018-03-26T11:10:19.691Z,22.17
2018-03-26T11:12:47.991Z,23.73
2018-03-26T11:15:18.416Z,23.83
2018-03-26T11:17:46.736Z,23.53
2018-03-26T11:20:15.028Z,24.43
2018-03-26T11:22:44.666Z,22.00
2018-03-26T11:25:12.971Z,23.07
2018-03-26T11:27:42.033Z,23.77
2018-03-26T11:30:11.533Z,23.50
2018-03-26T11:32:39.837Z,22.57
2018-03-26T11:35:08.157Z,23.70
2018-03-26T11:37:38.661Z,24.57
2018-03-26T11:40:06.975Z,24.80
2018-03-26T11:42:35.278Z,23.53
2018-03-26T11:45:04.798Z,23.20
2018-03-26T11:47:33.893Z,23.63
2018-03-26T11:50:02.301Z,23.93
2018-03-26T11:52:31.722Z,24.43
2018-03-26T11:55:00.024Z,24.20
2018-03-26T11:57:29.079Z,23.63
2018-03-26T11:59:58.638Z,23.63
2018-03-26T12:02:29.663Z,22.60
2018-03-26T12:04:58.684Z,23.83
2018-03-26T12:07:27.013Z,23.93
2018-03-26T12:09:55.328Z,22.33
2018-03-26T12:12:25.057Z,21.60
2018-03-26T12:14:54.114Z,22.80
2018-03-26T12:17:23.179Z,24.30
2018-03-26T12:20:04.271Z,27.80
2018-03-26T12:22:32.579Z,27.23
2018-03-26T12:25:16.012Z,26.23
2018-03-26T12:27:56.848Z,28.70
2018-03-26T12:30:27.420Z,26.60
2018-03-26T12:32:55.737Z,27.00
2018-03-26T12:35:36.523Z,24.70
2018-03-26T12:38:04.806Z,22.60
2018-03-26T12:40:45.839Z,23.03
2018-03-26T12:43:14.169Z,21.00
2018-03-26T12:45:55.433Z,21.60
2018-03-26T12:48:23.725Z,19.00
2018-03-26T12:51:03.948Z,17.60
2018-03-26T12:53:33.341Z,19.97
2018-03-26T12:56:02.423Z,18.70
2018-03-26T12:58:52.387Z,18.10
2018-03-26T13:01:33.512Z,17.27
2018-03-26T13:04:01.809Z,19.70
2018-03-26T13:06:32.986Z,20.53
2018-03-26T13:09:01.282Z,19.50
2018-03-26T13:11:29.601Z,20.03
2018-03-26T13:13:59.051Z,21.13
2018-03-26T13:16:27.351Z,20.37
2018-03-26T13:18:56.435Z,21.37
2018-03-26T13:21:25.670Z,23.07
2018-03-26T13:23:54.728Z,23.87
2018-03-26T13:26:23.029Z,25.07
2018-03-26T13:28:52.332Z,25.00
2018-03-26T13:31:20.646Z,25.93
2018-03-26T13:33:48.985Z,25.60
2018-03-26T13:36:18.400Z,26.37
2018-03-26T13:38:47.490Z,26.20
2018-03-26T13:41:15.805Z,26.83
2018-03-26T13:43:45.281Z,26.77
2018-03-26T13:46:13.591Z,25.80
2018-03-26T13:48:42.689Z,26.73
2018-03-26T13:51:12.690Z,26.50
2018-03-26T13:53:41.813Z,28.43
2018-03-26T13:56:10.112Z,28.30
2018-03-26T13:58:39.505Z,32.77
2018-03-26T14:01:07.831Z,30.60
2018-03-26T14:03:36.116Z,31.87
2018-03-26T14:06:04.441Z,31.33
2018-03-26T14:08:46.520Z,30.20
2018-03-26T14:11:29.225Z,30.30
2018-03-26T14:14:10.012Z,28.90
2018-03-26T14:16:50.238Z,29.13
2018-03-26T14:19:19.584Z,30.27
2018-03-26T14:21:47.881Z,27.90
2018-03-26T14:24:16.203Z,29.03
2018-03-26T14:26:45.639Z,29.00
2018-03-26T14:29:14.698Z,29.47
2018-03-26T14:31:43.016Z,31.03
2018-03-26T14:34:13.668Z,30.77
2018-03-26T14:36:41.998Z,31.03
2018-03-26T14:39:10.404Z,32.40
2018-03-26T14:41:39.572Z,32.00
2018-03-26T14:44:07.910Z,30.60
2018-03-26T14:46:36.244Z,32.60
2018-03-26T14:49:05.867Z,31.50
2018-03-26T14:51:34.285Z,30.10
2018-03-26T14:54:03.388Z,30.77
2018-03-26T14:56:32.899Z,30.13
2018-03-26T14:59:01.241Z,30.60
2018-03-26T15:01:29.526Z,29.97
2018-03-26T15:04:01.435Z,30.90
2018-03-26T15:06:29.760Z,31.73
2018-03-26T15:08:58.075Z,27.37
2018-03-26T15:11:30.645Z,28.77
2018-03-26T15:13:59.028Z,29.47
2018-03-26T15:16:27.316Z,31.17
2018-03-26T15:18:56.627Z,27.10
2018-03-26T15:21:24.931Z,30.40
2018-03-26T15:23:53.251Z,28.23
2018-03-26T15:26:22.704Z,30.30
2018-03-26T15:28:51.802Z,27.00
2018-03-26T15:31:20.876Z,28.30
2018-03-26T15:33:50.421Z,30.23
2018-03-26T15:36:19.477Z,27.97
2018-03-26T15:38:47.812Z,30.80
2018-03-26T15:42:01.157Z,27.40
2018-03-26T15:48:11.074Z,29.00
2018-03-26T17:27:00.926Z,32.42
2018-03-26T17:29:29.245Z,34.55
2018-03-26T17:31:57.567Z,33.97
2018-03-26T17:34:26.921Z,33.72
2018-03-26T17:36:56.099Z,36.10
2018-03-26T17:39:24.409Z,34.22
2018-03-26T17:41:53.816Z,35.60
2018-03-26T17:44:22.885Z,35.58
2018-03-26T17:46:51.186Z,33.75
2018-03-26T17:49:21.496Z,34.85
2018-03-26T17:51:49.828Z,36.22
2018-03-26T17:54:18.202Z,36.13
2018-03-26T17:56:48.214Z,33.53
2018-03-26T17:59:16.520Z,35.13
2018-03-26T18:01:44.835Z,34.25
2018-03-26T18:04:14.259Z,35.80
2018-03-26T18:06:43.339Z,35.38
2018-03-26T18:09:11.639Z,35.65
2018-03-26T18:11:40.732Z,33.78
2018-03-26T18:14:10.273Z,35.80
2018-03-26T18:16:38.590Z,35.55
2018-03-26T18:19:06.968Z,34.15
2018-03-26T18:21:36.334Z,34.08
2018-03-26T18:24:05.385Z,34.40
2018-03-26T18:26:35.671Z,35.13
2018-03-26T18:29:04.735Z,33.55
2018-03-26T18:31:33.039Z,34.78
2018-03-26T18:34:02.128Z,35.22
2018-03-26T18:36:31.254Z,33.92
2018-03-26T18:38:59.558Z,34.25
2018-03-26T18:41:27.877Z,34.05
2018-03-26T18:43:56.573Z,37.72
2018-03-26T18:46:24.873Z,35.50
2018-03-26T18:48:53.211Z,37.28
2018-03-26T18:51:22.576Z,35.50
2018-03-26T18:53:50.890Z,36.25
2018-03-26T18:56:19.173Z,35.17
2018-03-26T18:58:47.906Z,37.40
2018-03-26T19:01:16.187Z,36.80
2018-03-26T19:03:45.269Z,38.15
2018-03-26T19:06:14.225Z,38.05
2018-03-26T19:08:43.319Z,39.05
2018-03-26T19:11:11.647Z,37.80
2018-03-26T19:13:40.943Z,38.47
2018-03-26T19:16:09.264Z,35.83
2018-03-26T19:18:38.320Z,36.58
2018-03-26T19:21:06.657Z,38.20
2018-03-26T19:23:36.039Z,37.35
2018-03-26T19:26:04.362Z,38.22
2018-03-26T19:28:34.199Z,39.35
2018-03-26T19:31:02.507Z,35.00
2018-03-26T19:33:35.325Z,36.70
2018-03-26T19:36:03.746Z,36.95
2018-03-26T19:38:32.169Z,38.00
2018-03-26T19:41:01.851Z,39.28
2018-03-26T19:43:31.016Z,36.88
2018-03-26T19:46:00.142Z,36.65
2018-03-26T19:48:29.236Z,38.28
2018-03-26T19:50:57.796Z,37.07
2018-03-26T19:53:27.043Z,36.20
2018-03-26T19:55:55.776Z,38.75
2018-03-26T19:58:24.222Z,34.22
2018-03-26T20:00:52.616Z,37.63
2018-03-26T20:03:22.350Z,39.33
2018-03-26T20:05:51.461Z,38.42
2018-03-26T20:08:20.532Z,38.20
2018-03-26T20:10:49.565Z,39.15
2018-03-26T20:13:18.637Z,37.50
2018-03-26T20:15:46.977Z,41.05
2018-03-26T20:18:16.017Z,37.78
2018-03-26T20:20:45.084Z,39.50
2018-03-26T20:23:13.449Z,40.58
2018-03-26T20:25:43.614Z,39.83
2018-03-26T20:28:11.902Z,40.55
2018-03-26T20:30:41.940Z,38.80
2018-03-26T20:33:12.094Z,42.13
2018-03-26T20:35:40.390Z,43.53
2018-03-26T20:38:08.740Z,41.22
2018-03-26T20:40:37.942Z,42.15
2018-03-26T20:43:06.597Z,40.85
2018-03-26T20:45:34.988Z,38.25
2018-03-26T20:48:05.132Z,41.08
2018-03-26T20:50:38.327Z,40.85
2018-03-26T20:53:07.798Z,42.47
2018-03-26T20:55:36.094Z,43.08
2018-03-26T20:58:04.399Z,41.42
2018-03-26T21:00:34.276Z,42.58
2018-03-26T21:03:03.836Z,41.63
2018-03-26T21:05:32.171Z,43.85
2018-03-26T21:08:00.453Z,38.97
2018-03-26T21:10:29.566Z,45.42
2018-03-26T21:12:58.561Z,40.45
2018-03-26T21:15:26.871Z,44.83
2018-03-26T21:17:56.751Z,42.20
2018-03-26T21:20:25.098Z,41.78
2018-03-26T21:22:53.678Z,38.10
2018-03-26T21:25:22.981Z,39.03
2018-03-26T21:27:52.138Z,43.35
2018-03-26T21:30:24.063Z,43.08
2018-03-26T21:32:54.358Z,44.42
2018-03-26T21:35:25.607Z,44.57
2018-03-26T21:37:54.680Z,40.83
2018-03-26T21:40:23.262Z,41.58
2018-03-26T21:42:53.714Z,44.30
2018-03-26T21:45:22.997Z,44.22
2018-03-26T21:47:51.725Z,44.78
2018-03-26T21:50:21.371Z,43.05
2018-03-26T21:52:51.372Z,44.50
2018-03-26T21:55:19.761Z,44.95
2018-03-26T21:57:48.697Z,45.40
2018-03-26T22:00:17.890Z,44.90
2018-03-26T22:02:46.213Z,44.22
2018-03-26T22:05:15.668Z,42.97
2018-03-26T22:07:43.973Z,44.10
2018-03-26T22:10:12.310Z,47.13
2018-03-26T22:12:41.643Z,53.28
2018-03-26T22:15:10.041Z,50.97
2018-03-26T22:17:39.250Z,49.22
2018-03-26T22:20:09.104Z,46.20
2018-03-26T22:22:37.412Z,51.58
2018-03-26T22:25:05.717Z,48.38
2018-03-26T22:27:34.040Z,51.90
2018-03-26T22:30:04.361Z,48.60
2018-03-26T22:32:33.438Z,51.95
2018-03-26T22:35:03.229Z,54.20
2018-03-26T22:37:31.933Z,53.25
2018-03-26T22:40:00.270Z,54.45
2018-03-26T22:42:28.586Z,60.95
2018-03-26T22:44:57.624Z,60.10
2018-03-26T22:47:26.700Z,56.72
2018-03-26T22:49:55.086Z,60.25
2018-03-26T22:52:24.520Z,61.53
2018-03-26T22:54:53.577Z,62.08
2018-03-26T22:57:21.878Z,63.92
2018-03-26T22:59:50.900Z,65.32
2018-03-26T23:02:19.227Z,65.25
2018-03-26T23:04:47.537Z,64.47
2018-03-26T23:07:16.181Z,68.85
2018-03-26T23:09:44.748Z,68.03
2018-03-26T23:12:13.805Z,69.28
2018-03-26T23:14:42.682Z,66.75
2018-03-26T23:17:12.074Z,65.15
2018-03-26T23:19:40.344Z,70.93
2018-03-26T23:22:08.644Z,69.10
2018-03-26T23:24:37.501Z,68.90
2018-03-26T23:27:06.565Z,78.85
2018-03-26T23:29:34.865Z,70.35
2018-03-26T23:32:04.314Z,75.20
2018-03-26T23:34:32.603Z,75.93
2018-03-26T23:37:02.435Z,75.65
2018-03-26T23:39:31.636Z,75.10
2018-03-26T23:41:59.923Z,80.87
2018-03-26T23:44:28.223Z,72.45
2018-03-26T23:46:57.642Z,76.45
2018-03-26T23:49:26.014Z,78.40
2018-03-26T23:51:54.320Z,79.22
2018-03-26T23:54:24.537Z,76.05
2018-03-26T23:56:52.838Z,73.20
2018-03-26T23:59:21.904Z,71.53
